Time,TemperatureF,DewpointF,PressureIn,WindDirection,WindDirectionDegrees,WindSpeedMPH,WindSpeedGustMPH,Humidity,HourlyPrecipIn,Conditions,Clouds,dailyrainin,SoftwareType,DateUTC
2013-08-21 00:00:00,48.0,-99.9,-100.00,NNE,18,2.0,3.0,-999,-99.99,,,0.00,,2013-08-21 06:00:00,
2013-08-21 00:52:00,48.0,-99.9,-100.00,NNE,18,2.0,3.0,-999,-99.99,,,0.00,,2013-08-21 06:52:00,
2013-08-21 02:00:00,47.0,-99.9,-100.00,NNE,23,2.0,2.0,-999,-99.99,,,0.00,,2013-08-21 08:00:00,
2013-08-21 02:53:00,47.0,-99.9,-100.00,NNE,23,2.0,2.0,-999,-99.99,,,0.00,,2013-08-21 08:53:00,
2013-08-21 03:00:00,49.0,-99.9,-100.00,NNE,30,1.0,2.0,-999,-99.99,,,0.00,,2013-08-21 09:00:00,
2013-08-21 03:54:00,49.0,-99.9,-100.00,NNE,30,1.0,2.0,-999,-99.99,,,0.00,,2013-08-21 09:54:00,
2013-08-21 04:00:00,49.0,-99.9,-100.00,ENE,59,0.0,3.0,-999,-99.99,,,0.00,,2013-08-21 10:00:00,
2013-08-21 04:53:00,49.0,-99.9,-100.00,ENE,59,0.0,3.0,-999,-99.99,,,0.00,,2013-08-21 10:53:00,
2013-08-21 05:00:00,49.0,-99.9,-100.00,NE,47,0.0,2.0,-999,-99.99,,,0.00,,2013-08-21 11:00:00,
2013-08-21 05:53:00,49.0,-99.9,-100.00,NE,47,0.0,2.0,-999,-99.99,,,0.00,,2013-08-21 11:53:00,
2013-08-21 06:00:00,47.0,-99.9,-100.00,NE,56,0.0,2.0,-999,-99.99,,,0.00,,2013-08-21 12:00:00,
2013-08-21 06:52:00,47.0,-99.9,-100.00,NE,56,0.0,2.0,-999,-99.99,,,0.00,,2013-08-21 12:52:00,
2013-08-21 07:00:00,44.0,-99.9,-100.00,NNE,25,1.0,2.0,-999,-99.99,,,0.00,,2013-08-21 13:00:00,
2013-08-21 07:52:00,44.0,-99.9,-100.00,NNE,25,1.0,2.0,-999,-99.99,,,0.00,,2013-08-21 13:52:00,
2013-08-21 08:00:00,47.0,-99.9,-100.00,NNE,25,2.0,3.0,-999,-99.99,,,0.00,,2013-08-21 14:00:00,
2013-08-21 08:52:00,47.0,-99.9,-100.00,NNE,25,2.0,3.0,-999,-99.99,,,0.00,,2013-08-21 14:52:00,
2013-08-21 09:00:00,51.0,-99.9,-100.00,NNE,12,2.0,4.0,-999,-99.99,,,0.00,,2013-08-21 15:00:00,
2013-08-21 09:55:00,51.0,-99.9,-100.00,NNE,12,2.0,4.0,-999,-99.99,,,0.00,,2013-08-21 15:55:00,
2013-08-21 10:00:00,55.0,-99.9,-100.00,NE,42,1.0,3.0,-999,-99.99,,,0.00,,2013-08-21 16:00:00,
2013-08-21 10:53:00,55.0,-99.9,-100.00,NE,42,1.0,3.0,-999,-99.99,,,0.00,,2013-08-21 16:53:00,
2013-08-21 11:00:00,58.0,-99.9,-100.00,NW,308,1.0,4.0,-999,-99.99,,,0.00,,2013-08-21 17:00:00,
2013-08-21 11:53:00,58.0,-99.9,-100.00,NW,308,1.0,4.0,-999,-99.99,,,0.00,,2013-08-21 17:53:00,
2013-08-21 13:00:00,60.0,-99.9,-100.00,NW,311,2.0,6.0,-999,-99.99,,,0.00,,2013-08-21 19:00:00,
2013-08-21 13:53:00,60.0,-99.9,-100.00,NW,311,2.0,6.0,-999,-99.99,,,0.00,,2013-08-21 19:53:00,
2013-08-21 15:00:00,62.0,-99.9,-100.00,NNW,345,2.0,9.0,-999,-99.99,,,-99.99,,2013-08-21 21:00:00,
2013-08-21 15:55:00,62.0,-99.9,-100.00,NNW,345,2.0,9.0,-999,-99.99,,,-99.99,,2013-08-21 21:55:00,
2013-08-21 16:00:00,56.0,-99.9,-100.00,South,172,3.0,7.0,-999,-99.99,,,-99.99,,2013-08-21 22:00:00,
2013-08-21 16:53:00,56.0,-99.9,-100.00,South,172,3.0,7.0,-999,-99.99,,,-99.99,,2013-08-21 22:53:00,
2013-08-21 17:00:00,49.0,-99.9,-100.00,SSE,165,3.0,6.0,-999,-99.99,,,0.00,,2013-08-21 23:00:00,
2013-08-21 17:53:00,49.0,-99.9,-100.00,SSE,165,3.0,6.0,-999,-99.99,,,0.00,,2013-08-21 23:53:00,
2013-08-21 18:00:00,48.0,-99.9,-100.00,SSE,157,3.0,6.0,-999,-99.99,,,0.00,,2013-08-22 00:00:00,
2013-08-21 18:52:00,48.0,-99.9,-100.00,SSE,157,3.0,6.0,-999,-99.99,,,0.00,,2013-08-22 00:52:00,
2013-08-21 21:00:00,47.0,-99.9,-100.00,SSE,161,1.0,3.0,-999,-99.99,,,0.00,,2013-08-22 03:00:00,
2013-08-21 21:54:00,47.0,-99.9,-100.00,SSE,161,1.0,3.0,-999,-99.99,,,0.00,,2013-08-22 03:54:00,
2013-08-21 22:00:00,48.0,-99.9,-100.00,SSE,163,1.0,3.0,-999,-99.99,,,0.00,,2013-08-22 04:00:00,
2013-08-21 22:54:00,48.0,-99.9,-100.00,SSE,163,1.0,3.0,-999,-99.99,,,0.00,,2013-08-22 04:54:00,
2013-08-21 23:00:00,49.0,-99.9,-100.00,SSE,155,1.0,3.0,-999,-99.99,,,0.00,,2013-08-22 05:00:00,
2013-08-21 23:53:00,49.0,-99.9,-100.00,SSE,155,1.0,3.0,-999,-99.99,,,0.00,,2013-08-22 05:53:00,